Weather at Grantley Adams International Airport

Public forecast

Using degrees Celsius for public forecast. Weather courtesy of forecast.io.

Current aviation weather report (METAR) for Grantley Adams International Airport

Retrieved 2022/01/17 10:00 UTC (15 minutes ago):

TBPB 171000Z 09016KT 9999 SHRA BKN014 SCT036 23/21 Q1014 NOSIG

Aviation forecast (TAF) for Grantley Adams International Airport

Retrieved 2022/01/17 06:07 UTC (4 hours ago):

TAF TBPB 170500Z 1706/1806 08018KT 9999 BKN016 BKN034 PROB40 TEMPO 1706/1715 SHRA